sensor_id;sensor_type;location;lat;lon;timestamp;temperature;humidity
20366;DHT22;10341;49.894;8.822;2022-11-20T00:04:53;2.60;99.90
20366;DHT22;10341;49.894;8.822;2022-11-20T00:10:13;2.70;99.90
20366;DHT22;10341;49.894;8.822;2022-11-20T00:15:32;2.50;99.90
20366;DHT22;10341;49.894;8.822;2022-11-20T00:20:51;2.50;99.90
20366;DHT22;10341;49.894;8.822;2022-11-20T00:26:13;2.50;99.90
20366;DHT22;10341;49.894;8.822;2022-11-20T00:31:34;2.50;99.90
20366;DHT22;10341;49.894;8.822;2022-11-20T00:36:54;2.40;99.90
20366;DHT22;10341;49.894;8.822;2022-11-20T00:42:13;2.40;99.90
20366;DHT22;10341;49.894;8.822;2022-11-20T00:47:32;2.60;99.90
20366;DHT22;10341;49.894;8.822;2022-11-20T00:52:52;2.50;99.90
20366;DHT22;10341;49.894;8.822;2022-11-20T00:58:11;2.60;99.90
20366;DHT22;10341;49.894;8.822;2022-11-20T01:03:42;2.50;99.90
20366;DHT22;10341;49.894;8.822;2022-11-20T01:09:05;2.40;99.90
20366;DHT22;10341;49.894;8.822;2022-11-20T01:14:26;2.40;99.90
20366;DHT22;10341;49.894;8.822;2022-11-20T01:19:49;2.40;99.90
20366;DHT22;10341;49.894;8.822;2022-11-20T01:25:09;2.50;99.90
20366;DHT22;10341;49.894;8.822;2022-11-20T01:30:28;2.60;99.90
20366;DHT22;10341;49.894;8.822;2022-11-20T01:41:41;2.50;99.90
20366;DHT22;10341;49.894;8.822;2022-11-20T01:47:40;2.60;99.90
20366;DHT22;10341;49.894;8.822;2022-11-20T01:53:05;2.50;99.90
20366;DHT22;10341;49.894;8.822;2022-11-20T01:58:30;2.50;99.90
20366;DHT22;10341;49.894;8.822;2022-11-20T02:03:51;2.60;99.90
20366;DHT22;10341;49.894;8.822;2022-11-20T02:09:11;2.70;99.90
20366;DHT22;10341;49.894;8.822;2022-11-20T02:14:30;2.70;99.90
20366;DHT22;10341;49.894;8.822;2022-11-20T02:19:51;2.80;99.90
20366;DHT22;10341;49.894;8.822;2022-11-20T02:25:10;2.80;99.90
20366;DHT22;10341;49.894;8.822;2022-11-20T02:30:30;2.80;99.90
20366;DHT22;10341;49.894;8.822;2022-11-20T02:35:49;2.70;99.90
20366;DHT22;10341;49.894;8.822;2022-11-20T02:41:08;2.70;99.90
20366;DHT22;10341;49.894;8.822;2022-11-20T02:46:27;2.70;99.90
20366;DHT22;10341;49.894;8.822;2022-11-20T02:51:46;2.80;99.90
20366;DHT22;10341;49.894;8.822;2022-11-20T02:57:05;2.90;99.90
20366;DHT22;10341;49.894;8.822;2022-11-20T03:02:25;2.90;99.90
20366;DHT22;10341;49.894;8.822;2022-11-20T03:07:44;2.80;99.90
20366;DHT22;10341;49.894;8.822;2022-11-20T03:13:04;2.80;99.90
20366;DHT22;10341;49.894;8.822;2022-11-20T03:18:23;2.70;99.90
20366;DHT22;10341;49.894;8.822;2022-11-20T03:23:42;2.80;99.90
20366;DHT22;10341;49.894;8.822;2022-11-20T03:29:04;2.70;99.90
20366;DHT22;10341;49.894;8.822;2022-11-20T03:34:23;2.70;99.90
20366;DHT22;10341;49.894;8.822;2022-11-20T03:39:42;2.70;99.90
20366;DHT22;10341;49.894;8.822;2022-11-20T03:45:01;2.70;99.90
20366;DHT22;10341;49.894;8.822;2022-11-20T03:50:21;2.70;99.90
20366;DHT22;10341;49.894;8.822;2022-11-20T03:55:42;2.70;99.90
20366;DHT22;10341;49.894;8.822;2022-11-20T04:01:11;2.80;99.90
20366;DHT22;10341;49.894;8.822;2022-11-20T04:06:35;2.80;99.90
20366;DHT22;10341;49.894;8.822;2022-11-20T04:11:56;2.80;99.90
20366;DHT22;10341;49.894;8.822;2022-11-20T04:17:15;2.80;99.90
20366;DHT22;10341;49.894;8.822;2022-11-20T04:22:37;2.70;99.90
20366;DHT22;10341;49.894;8.822;2022-11-20T04:27:56;2.70;99.90
20366;DHT22;10341;49.894;8.822;2022-11-20T04:33:15;2.80;99.90
20366;DHT22;10341;49.894;8.822;2022-11-20T04:38:35;2.80;99.90
20366;DHT22;10341;49.894;8.822;2022-11-20T04:43:59;2.80;99.90
20366;DHT22;10341;49.894;8.822;2022-11-20T04:49:21;2.90;99.90
20366;DHT22;10341;49.894;8.822;2022-11-20T04:54:40;2.90;99.90
20366;DHT22;10341;49.894;8.822;2022-11-20T05:00:00;2.90;99.90
20366;DHT22;10341;49.894;8.822;2022-11-20T05:05:19;2.90;99.90
20366;DHT22;10341;49.894;8.822;2022-11-20T05:10:38;2.90;99.90
20366;DHT22;10341;49.894;8.822;2022-11-20T05:16:06;2.90;99.90
20366;DHT22;10341;49.894;8.822;2022-11-20T05:21:25;2.90;99.90
20366;DHT22;10341;49.894;8.822;2022-11-20T05:26:44;2.90;99.90
20366;DHT22;10341;49.894;8.822;2022-11-20T05:32:04;2.90;99.90
20366;DHT22;10341;49.894;8.822;2022-11-20T05:37:25;2.90;99.90
20366;DHT22;10341;49.894;8.822;2022-11-20T05:42:44;2.90;99.90
20366;DHT22;10341;49.894;8.822;2022-11-20T05:48:03;2.90;99.90
20366;DHT22;10341;49.894;8.822;2022-11-20T05:53:23;2.90;99.90
20366;DHT22;10341;49.894;8.822;2022-11-20T05:58:43;2.90;99.90
20366;DHT22;10341;49.894;8.822;2022-11-20T06:04:02;2.90;99.90
20366;DHT22;10341;49.894;8.822;2022-11-20T06:09:21;2.90;99.90
20366;DHT22;10341;49.894;8.822;2022-11-20T06:14:40;2.90;99.90
20366;DHT22;10341;49.894;8.822;2022-11-20T06:19:59;3.00;99.90
20366;DHT22;10341;49.894;8.822;2022-11-20T06:25:18;3.00;99.90
20366;DHT22;10341;49.894;8.822;2022-11-20T06:30:44;2.90;99.90
20366;DHT22;10341;49.894;8.822;2022-11-20T06:36:04;3.00;99.90
20366;DHT22;10341;49.894;8.822;2022-11-20T06:41:23;3.00;99.90
20366;DHT22;10341;49.894;8.822;2022-11-20T06:46:44;3.10;99.90
20366;DHT22;10341;49.894;8.822;2022-11-20T06:52:04;3.10;99.90
20366;DHT22;10341;49.894;8.822;2022-11-20T06:57:23;3.10;99.90
20366;DHT22;10341;49.894;8.822;2022-11-20T07:02:42;3.10;99.90
20366;DHT22;10341;49.894;8.822;2022-11-20T07:08:02;3.10;99.90
20366;DHT22;10341;49.894;8.822;2022-11-20T07:13:22;3.10;99.90
20366;DHT22;10341;49.894;8.822;2022-11-20T07:18:41;3.20;99.90
20366;DHT22;10341;49.894;8.822;2022-11-20T07:24:00;3.20;99.90
20366;DHT22;10341;49.894;8.822;2022-11-20T07:29:19;3.20;99.90
20366;DHT22;10341;49.894;8.822;2022-11-20T07:34:38;3.20;99.90
20366;DHT22;10341;49.894;8.822;2022-11-20T07:39:57;3.30;99.90
20366;DHT22;10341;49.894;8.822;2022-11-20T07:45:18;3.30;99.90
20366;DHT22;10341;49.894;8.822;2022-11-20T07:50:37;3.30;99.90
20366;DHT22;10341;49.894;8.822;2022-11-20T07:55:59;3.30;99.90
20366;DHT22;10341;49.894;8.822;2022-11-20T08:01:19;3.30;99.90
20366;DHT22;10341;49.894;8.822;2022-11-20T08:06:38;3.30;99.90
20366;DHT22;10341;49.894;8.822;2022-11-20T08:11:57;3.40;99.90
20366;DHT22;10341;49.894;8.822;2022-11-20T08:17:35;3.30;99.90
20366;DHT22;10341;49.894;8.822;2022-11-20T08:23:01;3.30;99.90
20366;DHT22;10341;49.894;8.822;2022-11-20T08:28:20;3.40;99.90
20366;DHT22;10341;49.894;8.822;2022-11-20T08:33:39;3.40;99.90
20366;DHT22;10341;49.894;8.822;2022-11-20T08:38:59;3.50;99.90
20366;DHT22;10341;49.894;8.822;2022-11-20T08:44:18;3.60;99.90
20366;DHT22;10341;49.894;8.822;2022-11-20T08:49:37;3.70;99.90
20366;DHT22;10341;49.894;8.822;2022-11-20T08:54:56;3.80;99.90
20366;DHT22;10341;49.894;8.822;2022-11-20T09:00:16;3.90;99.90
20366;DHT22;10341;49.894;8.822;2022-11-20T09:05:35;4.00;99.90
20366;DHT22;10341;49.894;8.822;2022-11-20T09:10:56;4.10;99.90
20366;DHT22;10341;49.894;8.822;2022-11-20T09:16:16;4.30;99.90
20366;DHT22;10341;49.894;8.822;2022-11-20T09:21:36;4.70;99.90
20366;DHT22;10341;49.894;8.822;2022-11-20T09:26:55;4.90;99.90
20366;DHT22;10341;49.894;8.822;2022-11-20T09:32:14;4.90;99.90
20366;DHT22;10341;49.894;8.822;2022-11-20T09:37:33;4.70;99.90
20366;DHT22;10341;49.894;8.822;2022-11-20T09:43:29;4.70;99.90
20366;DHT22;10341;49.894;8.822;2022-11-20T09:49:14;4.90;99.90
20366;DHT22;10341;49.894;8.822;2022-11-20T09:54:38;5.10;99.90
20366;DHT22;10341;49.894;8.822;2022-11-20T10:00:04;5.30;99.90
20366;DHT22;10341;49.894;8.822;2022-11-20T10:11:42;5.50;99.90
20366;DHT22;10341;49.894;8.822;2022-11-20T10:34:33;5.60;99.90
20366;DHT22;10341;49.894;8.822;2022-11-20T10:40:18;5.80;99.90
20366;DHT22;10341;49.894;8.822;2022-11-20T10:45:58;5.80;99.90
20366;DHT22;10341;49.894;8.822;2022-11-20T10:51:38;5.90;99.90
20366;DHT22;10341;49.894;8.822;2022-11-20T11:02:52;5.80;99.90
20366;DHT22;10341;49.894;8.822;2022-11-20T11:08:15;5.70;99.90
20366;DHT22;10341;49.894;8.822;2022-11-20T11:13:35;5.50;99.90
20366;DHT22;10341;49.894;8.822;2022-11-20T11:19:14;5.50;99.90
20366;DHT22;10341;49.894;8.822;2022-11-20T11:24:34;5.40;99.90
20366;DHT22;10341;49.894;8.822;2022-11-20T11:30:12;5.30;99.90
20366;DHT22;10341;49.894;8.822;2022-11-20T11:35:33;5.30;99.90
20366;DHT22;10341;49.894;8.822;2022-11-20T11:40:54;5.50;99.90
20366;DHT22;10341;49.894;8.822;2022-11-20T12:03:19;6.30;99.90
20366;DHT22;10341;49.894;8.822;2022-11-20T12:09:05;6.20;99.90
20366;DHT22;10341;49.894;8.822;2022-11-20T12:14:37;6.10;99.90
20366;DHT22;10341;49.894;8.822;2022-11-20T12:19:57;6.10;99.90
20366;DHT22;10341;49.894;8.822;2022-11-20T12:42:06;6.50;99.90
20366;DHT22;10341;49.894;8.822;2022-11-20T13:05:13;6.30;99.90
20366;DHT22;10341;49.894;8.822;2022-11-20T13:10:51;6.20;99.90
20366;DHT22;10341;49.894;8.822;2022-11-20T13:16:19;6.20;99.90
20366;DHT22;10341;49.894;8.822;2022-11-20T13:21:45;6.20;99.90
20366;DHT22;10341;49.894;8.822;2022-11-20T13:27:17;6.10;99.90
20366;DHT22;10341;49.894;8.822;2022-11-20T13:33:06;6.00;99.90
20366;DHT22;10341;49.894;8.822;2022-11-20T13:38:28;6.00;99.90
20366;DHT22;10341;49.894;8.822;2022-11-20T13:44:13;5.90;99.90
20366;DHT22;10341;49.894;8.822;2022-11-20T13:49:37;6.20;99.90
20366;DHT22;10341;49.894;8.822;2022-11-20T14:00:25;6.60;99.90
20366;DHT22;10341;49.894;8.822;2022-11-20T14:05:59;6.60;99.90
20366;DHT22;10341;49.894;8.822;2022-11-20T14:11:24;6.60;99.90
20366;DHT22;10341;49.894;8.822;2022-11-20T14:16:44;6.60;99.90
20366;DHT22;10341;49.894;8.822;2022-11-20T14:22:10;6.50;99.90
20366;DHT22;10341;49.894;8.822;2022-11-20T14:27:34;6.40;99.90
20366;DHT22;10341;49.894;8.822;2022-11-20T14:33:00;6.40;99.90
20366;DHT22;10341;49.894;8.822;2022-11-20T14:38:28;6.30;99.90
20366;DHT22;10341;49.894;8.822;2022-11-20T14:43:56;6.20;99.90
20366;DHT22;10341;49.894;8.822;2022-11-20T14:49:15;6.10;99.90
20366;DHT22;10341;49.894;8.822;2022-11-20T14:54:42;6.10;99.90
20366;DHT22;10341;49.894;8.822;2022-11-20T15:05:49;5.90;99.90
20366;DHT22;10341;49.894;8.822;2022-11-20T15:11:22;5.80;99.90
20366;DHT22;10341;49.894;8.822;2022-11-20T15:16:42;5.80;99.90
20366;DHT22;10341;49.894;8.822;2022-11-20T15:22:02;5.70;99.90
20366;DHT22;10341;49.894;8.822;2022-11-20T15:27:21;5.60;99.90
20366;DHT22;10341;49.894;8.822;2022-11-20T15:32:41;5.50;99.90
20366;DHT22;10341;49.894;8.822;2022-11-20T15:38:01;5.50;99.90
20366;DHT22;10341;49.894;8.822;2022-11-20T15:43:20;5.50;99.90
20366;DHT22;10341;49.894;8.822;2022-11-20T15:48:43;5.40;99.90
20366;DHT22;10341;49.894;8.822;2022-11-20T15:54:11;5.40;99.90
20366;DHT22;10341;49.894;8.822;2022-11-20T15:59:31;5.40;99.90
20366;DHT22;10341;49.894;8.822;2022-11-20T16:04:50;5.40;99.90
20366;DHT22;10341;49.894;8.822;2022-11-20T16:10:10;5.50;99.90
20366;DHT22;10341;49.894;8.822;2022-11-20T16:15:31;5.50;99.90
20366;DHT22;10341;49.894;8.822;2022-11-20T16:21:11;5.40;99.90
20366;DHT22;10341;49.894;8.822;2022-11-20T16:26:33;5.40;99.90
20366;DHT22;10341;49.894;8.822;2022-11-20T16:31:52;5.40;99.90
20366;DHT22;10341;49.894;8.822;2022-11-20T16:37:12;5.40;99.90
20366;DHT22;10341;49.894;8.822;2022-11-20T16:42:35;5.40;99.90
20366;DHT22;10341;49.894;8.822;2022-11-20T16:47:54;5.40;99.90
20366;DHT22;10341;49.894;8.822;2022-11-20T16:53:14;5.30;99.90
20366;DHT22;10341;49.894;8.822;2022-11-20T16:58:34;5.30;99.90
20366;DHT22;10341;49.894;8.822;2022-11-20T17:03:56;5.40;99.90
20366;DHT22;10341;49.894;8.822;2022-11-20T17:09:15;5.40;99.90
20366;DHT22;10341;49.894;8.822;2022-11-20T17:14:35;5.40;99.90
20366;DHT22;10341;49.894;8.822;2022-11-20T17:19:55;5.50;99.90
20366;DHT22;10341;49.894;8.822;2022-11-20T17:25:14;5.60;99.90
20366;DHT22;10341;49.894;8.822;2022-11-20T17:30:34;5.70;99.90
20366;DHT22;10341;49.894;8.822;2022-11-20T17:35:53;5.80;99.90
20366;DHT22;10341;49.894;8.822;2022-11-20T17:41:19;5.90;99.90
20366;DHT22;10341;49.894;8.822;2022-11-20T17:46:40;6.10;99.90
20366;DHT22;10341;49.894;8.822;2022-11-20T17:52:00;6.20;99.90
20366;DHT22;10341;49.894;8.822;2022-11-20T17:57:19;6.30;99.90
20366;DHT22;10341;49.894;8.822;2022-11-20T18:02:58;6.40;99.90
20366;DHT22;10341;49.894;8.822;2022-11-20T18:08:17;6.50;99.90
20366;DHT22;10341;49.894;8.822;2022-11-20T18:13:38;6.40;99.90
20366;DHT22;10341;49.894;8.822;2022-11-20T18:19:18;6.40;99.90
20366;DHT22;10341;49.894;8.822;2022-11-20T18:24:38;6.40;99.90
20366;DHT22;10341;49.894;8.822;2022-11-20T18:29:58;6.30;99.90
20366;DHT22;10341;49.894;8.822;2022-11-20T18:35:17;6.30;99.90
20366;DHT22;10341;49.894;8.822;2022-11-20T18:40:37;6.20;99.90
20366;DHT22;10341;49.894;8.822;2022-11-20T18:46:03;6.20;99.90
20366;DHT22;10341;49.894;8.822;2022-11-20T18:51:23;6.10;99.90
20366;DHT22;10341;49.894;8.822;2022-11-20T18:56:42;6.20;99.90
20366;DHT22;10341;49.894;8.822;2022-11-20T19:02:02;6.20;99.90
20366;DHT22;10341;49.894;8.822;2022-11-20T19:07:21;6.20;99.90
20366;DHT22;10341;49.894;8.822;2022-11-20T19:12:41;6.20;99.90
20366;DHT22;10341;49.894;8.822;2022-11-20T19:18:00;6.30;99.90
20366;DHT22;10341;49.894;8.822;2022-11-20T19:23:20;6.30;99.90
20366;DHT22;10341;49.894;8.822;2022-11-20T19:28:40;6.30;99.90
20366;DHT22;10341;49.894;8.822;2022-11-20T19:34:01;6.30;99.90
20366;DHT22;10341;49.894;8.822;2022-11-20T19:39:21;6.30;99.90
20366;DHT22;10341;49.894;8.822;2022-11-20T19:44:40;6.40;99.90
20366;DHT22;10341;49.894;8.822;2022-11-20T19:50:00;6.40;99.90
20366;DHT22;10341;49.894;8.822;2022-11-20T19:55:19;6.30;99.90
20366;DHT22;10341;49.894;8.822;2022-11-20T20:00:39;6.40;99.90
20366;DHT22;10341;49.894;8.822;2022-11-20T20:06:03;6.30;99.90
20366;DHT22;10341;49.894;8.822;2022-11-20T20:11:25;6.40;99.90
20366;DHT22;10341;49.894;8.822;2022-11-20T20:16:45;6.40;99.90
20366;DHT22;10341;49.894;8.822;2022-11-20T20:22:04;6.40;99.90
20366;DHT22;10341;49.894;8.822;2022-11-20T20:27:24;6.40;99.90
20366;DHT22;10341;49.894;8.822;2022-11-20T20:32:43;6.40;99.90
20366;DHT22;10341;49.894;8.822;2022-11-20T20:38:02;6.40;99.90
20366;DHT22;10341;49.894;8.822;2022-11-20T20:43:21;6.50;99.90
20366;DHT22;10341;49.894;8.822;2022-11-20T20:48:41;6.50;99.90
20366;DHT22;10341;49.894;8.822;2022-11-20T20:54:00;6.50;99.90
20366;DHT22;10341;49.894;8.822;2022-11-20T20:59:19;6.40;99.90
20366;DHT22;10341;49.894;8.822;2022-11-20T21:04:38;6.40;99.90
20366;DHT22;10341;49.894;8.822;2022-11-20T21:09:57;6.40;99.90
20366;DHT22;10341;49.894;8.822;2022-11-20T21:15:17;6.30;99.90
20366;DHT22;10341;49.894;8.822;2022-11-20T21:20:40;6.20;99.90
20366;DHT22;10341;49.894;8.822;2022-11-20T21:26:18;6.20;99.90
20366;DHT22;10341;49.894;8.822;2022-11-20T21:31:38;6.10;99.90
20366;DHT22;10341;49.894;8.822;2022-11-20T21:36:57;6.20;99.90
20366;DHT22;10341;49.894;8.822;2022-11-20T21:42:17;6.30;99.90
20366;DHT22;10341;49.894;8.822;2022-11-20T21:47:36;6.40;99.90
20366;DHT22;10341;49.894;8.822;2022-11-20T21:52:55;6.50;99.90
20366;DHT22;10341;49.894;8.822;2022-11-20T21:58:14;6.60;99.90
20366;DHT22;10341;49.894;8.822;2022-11-20T22:03:34;6.70;99.90
20366;DHT22;10341;49.894;8.822;2022-11-20T22:08:54;6.60;99.90
20366;DHT22;10341;49.894;8.822;2022-11-20T22:14:13;6.70;99.90
20366;DHT22;10341;49.894;8.822;2022-11-20T22:19:39;6.80;99.90
20366;DHT22;10341;49.894;8.822;2022-11-20T22:24:58;6.80;99.90
20366;DHT22;10341;49.894;8.822;2022-11-20T22:30:18;6.80;99.90
20366;DHT22;10341;49.894;8.822;2022-11-20T22:35:37;6.80;99.90
20366;DHT22;10341;49.894;8.822;2022-11-20T22:41:11;6.80;99.90
20366;DHT22;10341;49.894;8.822;2022-11-20T22:46:33;6.70;99.90
20366;DHT22;10341;49.894;8.822;2022-11-20T22:51:53;6.70;99.90
20366;DHT22;10341;49.894;8.822;2022-11-20T22:57:13;6.70;99.90
20366;DHT22;10341;49.894;8.822;2022-11-20T23:02:32;6.70;99.90
20366;DHT22;10341;49.894;8.822;2022-11-20T23:07:52;6.70;99.90
20366;DHT22;10341;49.894;8.822;2022-11-20T23:13:11;6.70;99.90
20366;DHT22;10341;49.894;8.822;2022-11-20T23:18:31;6.70;99.90
20366;DHT22;10341;49.894;8.822;2022-11-20T23:23:55;6.70;99.90
20366;DHT22;10341;49.894;8.822;2022-11-20T23:29:15;6.80;99.90
20366;DHT22;10341;49.894;8.822;2022-11-20T23:34:34;6.70;99.90
20366;DHT22;10341;49.894;8.822;2022-11-20T23:39:54;6.70;99.90
20366;DHT22;10341;49.894;8.822;2022-11-20T23:45:13;6.70;99.90
20366;DHT22;10341;49.894;8.822;2022-11-20T23:50:33;6.70;99.90
20366;DHT22;10341;49.894;8.822;2022-11-20T23:55:55;6.70;99.90
